Terminal Aerodrome Forecast
Issued by NWS Boston, MA

Home | Current Version | Previous Version | Text Only | Print | Product List | Glossary On
Versions: 1 2 3 4 5 6 7 8 9 10 11 12 13 14 15 16 17 18 19 20 21 22 23 24
000
FTUS41 KBOX 030810 AAA
TAFBDL
TAF AMD
KBDL 030810Z 0308/0412 00000KT 6SM -RA BR SCT005 OVC060
     FM031000 VRB03KT 4SM -RA BR OVC005
     FM031200 VRB03KT 3SM +RA BR OVC007
     FM031600 03004KT 3SM BR VCSH OVC015
     FM040000 08005KT 6SM BR VCSH BKN040=

USA.gov is the U.S. government's official web portal to all federal, state and local government web resources and services.